createdAt,value
2023-05-10T00:00:18.852Z,29.963
2023-05-10T00:05:18.541Z,29.965
2023-05-10T00:10:18.702Z,29.966
2023-05-10T00:15:15.646Z,29.970
2023-05-10T00:20:15.827Z,29.974
2023-05-10T00:25:18.577Z,29.974
2023-05-10T00:30:18.768Z,29.976
2023-05-10T00:35:18.551Z,29.980
2023-05-10T00:40:18.827Z,29.985
2023-05-10T00:45:18.590Z,29.991
2023-05-10T00:50:18.772Z,29.992
2023-05-10T00:55:15.597Z,29.995
2023-05-10T01:00:18.666Z,29.997
2023-05-10T01:05:18.722Z,30.002
2023-05-10T01:10:15.836Z,30.003
2023-05-10T01:15:15.672Z,30.004
2023-05-10T01:20:15.648Z,30.007
2023-05-10T01:25:18.567Z,30.010
2023-05-10T01:30:18.640Z,30.011
2023-05-10T01:35:15.654Z,30.012
2023-05-10T01:40:18.616Z,30.015
2023-05-10T01:45:18.560Z,30.017
2023-05-10T01:50:15.814Z,30.016
2023-05-10T01:55:15.578Z,30.015
2023-05-10T02:00:15.956Z,30.018
2023-05-10T02:05:18.597Z,30.018
2023-05-10T02:10:18.876Z,30.019
2023-05-10T02:15:18.597Z,30.022
2023-05-10T02:20:15.898Z,30.022
2023-05-10T02:25:15.663Z,30.025
2023-05-10T02:30:18.699Z,30.026
2023-05-10T02:35:18.587Z,30.026
2023-05-10T02:40:18.866Z,30.027
2023-05-10T02:45:15.672Z,30.029
2023-05-10T02:50:16.039Z,30.029
2023-05-10T02:55:15.687Z,30.029
2023-05-10T03:00:18.744Z,30.032
2023-05-10T03:05:18.637Z,30.033
2023-05-10T03:10:18.842Z,30.032
2023-05-10T03:15:15.669Z,30.034
2023-05-10T03:20:15.806Z,30.036
2023-05-10T03:25:18.707Z,30.037
2023-05-10T03:30:18.898Z,30.038
2023-05-10T03:35:18.623Z,30.042
2023-05-10T03:40:16.036Z,30.043
2023-05-10T03:45:15.692Z,30.044
2023-05-10T03:50:18.934Z,30.044
2023-05-10T03:55:18.647Z,30.046
2023-05-10T04:00:20.061Z,30.047
2023-05-10T04:05:17.021Z,30.048
2023-05-10T04:10:17.077Z,30.047
2023-05-10T04:15:16.742Z,30.049
2023-05-10T04:20:16.978Z,30.049
2023-05-10T04:25:19.899Z,30.049
2023-05-10T04:30:19.907Z,30.050
2023-05-10T04:35:16.972Z,30.049
2023-05-10T04:40:17.202Z,30.051
2023-05-10T04:45:20.192Z,30.051
2023-05-10T04:50:19.949Z,30.050
2023-05-10T04:55:19.906Z,30.053
2023-05-10T05:00:19.928Z,30.053
2023-05-10T05:05:17.024Z,30.052
2023-05-10T05:10:20.265Z,30.052
2023-05-10T05:15:19.888Z,30.053
2023-05-10T05:20:20.042Z,30.054
2023-05-10T05:25:19.904Z,30.054
2023-05-10T05:30:17.265Z,30.054
2023-05-10T05:35:16.974Z,30.055
2023-05-10T05:40:16.982Z,30.056
2023-05-10T05:45:20.118Z,30.056
2023-05-10T05:50:19.981Z,30.056
2023-05-10T05:55:17.199Z,30.056
2023-05-10T06:00:20.009Z,30.056
2023-05-10T06:05:19.951Z,30.057
2023-05-10T06:10:19.963Z,30.056
2023-05-10T06:15:19.966Z,30.053
2023-05-10T06:20:19.945Z,30.056
2023-05-10T06:25:19.922Z,30.058
2023-05-10T06:30:19.936Z,30.056
2023-05-10T06:35:20.117Z,30.056
2023-05-10T06:40:17.012Z,30.054
2023-05-10T06:45:20.274Z,30.055
2023-05-10T06:50:20.188Z,30.053
2023-05-10T06:55:17.409Z,30.054
2023-05-10T07:00:20.327Z,30.054
2023-05-10T07:05:20.276Z,30.051
2023-05-10T07:10:17.050Z,30.052
2023-05-10T07:15:20.050Z,30.054
2023-05-10T07:20:16.977Z,30.056
2023-05-10T07:25:19.981Z,30.057
2023-05-10T07:30:20.032Z,30.057
2023-05-10T07:35:17.071Z,30.059
2023-05-10T07:40:20.098Z,30.058
2023-05-10T07:45:19.968Z,30.057
2023-05-10T07:50:17.018Z,30.056
2023-05-10T07:55:20.026Z,30.057
2023-05-10T08:00:20.045Z,30.058
2023-05-10T08:05:20.017Z,30.055
2023-05-10T08:10:20.027Z,30.056
2023-05-10T08:15:16.982Z,30.058
2023-05-10T08:20:20.064Z,30.057
2023-05-10T08:25:20.143Z,30.056
2023-05-10T08:30:17.114Z,30.056
2023-05-10T08:35:20.057Z,30.057
2023-05-10T08:40:20.160Z,30.058
2023-05-10T08:45:20.179Z,30.058
2023-05-10T08:50:20.067Z,30.059
2023-05-10T08:55:20.029Z,30.060
2023-05-10T09:00:20.142Z,30.059
2023-05-10T09:05:20.301Z,30.060
2023-05-10T09:10:20.040Z,30.063
2023-05-10T09:15:20.080Z,30.062
2023-05-10T09:20:20.037Z,30.063
2023-05-10T09:25:20.234Z,30.064
2023-05-10T09:30:17.035Z,30.063
2023-05-10T09:35:17.198Z,30.066
2023-05-10T09:40:17.231Z,30.069
2023-05-10T09:45:17.329Z,30.069
2023-05-10T09:50:20.105Z,30.070
2023-05-10T09:55:20.115Z,30.071
2023-05-10T10:00:20.177Z,30.072
2023-05-10T10:05:20.024Z,30.075
2023-05-10T10:10:20.019Z,30.076
2023-05-10T10:15:17.141Z,30.076
2023-05-10T10:20:20.462Z,30.078
2023-05-10T10:25:20.090Z,30.081
2023-05-10T10:30:20.108Z,30.085
2023-05-10T10:35:17.452Z,30.085
2023-05-10T10:40:20.068Z,30.084
2023-05-10T10:45:20.040Z,30.087
2023-05-10T10:50:17.150Z,30.087
2023-05-10T10:55:20.322Z,30.088
2023-05-10T11:00:20.078Z,30.088
2023-05-10T11:05:20.064Z,30.088
2023-05-10T11:10:20.067Z,30.089
2023-05-10T11:15:20.101Z,30.090
2023-05-10T11:20:20.308Z,30.092
2023-05-10T11:25:17.174Z,30.092
2023-05-10T11:30:17.198Z,30.093
2023-05-10T11:35:17.103Z,30.094
2023-05-10T11:40:20.211Z,30.097
2023-05-10T11:45:20.087Z,30.093
2023-05-10T11:50:20.208Z,30.092
2023-05-10T11:55:17.255Z,30.094
2023-05-10T12:00:17.382Z,30.093
2023-05-10T12:05:17.188Z,30.093
2023-05-10T12:10:20.339Z,30.092
2023-05-10T12:15:20.094Z,30.092
2023-05-10T12:20:17.538Z,30.094
2023-05-10T12:25:20.153Z,30.094
2023-05-10T12:30:20.124Z,30.093
2023-05-10T12:35:20.122Z,30.093
2023-05-10T12:40:20.116Z,30.094
2023-05-10T12:45:17.147Z,30.096
2023-05-10T12:50:17.334Z,30.096
2023-05-10T12:55:17.191Z,30.095
2023-05-10T13:00:17.337Z,30.095
2023-05-10T13:05:20.222Z,30.093
2023-05-10T13:10:17.515Z,30.091
2023-05-10T13:15:20.185Z,30.091
2023-05-10T13:20:20.173Z,30.092
2023-05-10T13:25:20.184Z,30.089
2023-05-10T13:30:20.110Z,30.086
2023-05-10T13:35:20.140Z,30.085
2023-05-10T13:40:20.297Z,30.084
2023-05-10T13:45:17.411Z,30.086
2023-05-10T13:50:20.178Z,30.084
2023-05-10T13:55:20.260Z,30.085
2023-05-10T14:00:20.187Z,30.083
2023-05-10T14:05:25.187Z,30.085
2023-05-10T14:10:20.144Z,30.080
2023-05-10T14:15:20.358Z,30.081
2023-05-10T14:20:20.160Z,30.078
2023-05-10T14:25:20.406Z,30.075
2023-05-10T14:30:20.207Z,30.074
2023-05-10T14:35:20.302Z,30.072
2023-05-10T14:40:20.139Z,30.071
2023-05-10T14:45:20.158Z,30.069
2023-05-10T14:50:34.742Z,30.067
2023-05-10T14:55:18.000Z,30.064
2023-05-10T15:00:17.465Z,30.062
2023-05-10T15:05:20.228Z,30.062
2023-05-10T15:10:17.243Z,30.060
2023-05-10T15:15:17.383Z,30.059
2023-05-10T15:20:17.234Z,30.055
2023-05-10T15:25:20.188Z,30.057
2023-05-10T15:30:20.207Z,30.052
2023-05-10T15:35:20.183Z,30.049
2023-05-10T15:40:20.172Z,30.045
2023-05-10T15:45:17.508Z,30.045
2023-05-10T15:50:20.208Z,30.042
2023-05-10T15:55:20.170Z,30.042
2023-05-10T16:00:20.164Z,30.039
2023-05-10T16:05:17.353Z,30.035
2023-05-10T16:10:20.234Z,30.031
2023-05-10T16:15:20.279Z,30.032
2023-05-10T16:20:20.179Z,30.029
2023-05-10T16:25:20.184Z,30.027
2023-05-10T16:30:21.293Z,30.026
2023-05-10T16:35:17.472Z,30.026
2023-05-10T16:40:20.235Z,30.019
2023-05-10T16:45:20.219Z,30.015
2023-05-10T16:50:20.247Z,30.014
2023-05-10T16:55:17.529Z,30.010
2023-05-10T17:00:20.305Z,30.006
2023-05-10T17:05:20.242Z,30.001
2023-05-10T17:10:20.234Z,29.999
2023-05-10T17:15:20.406Z,29.997
2023-05-10T17:20:20.275Z,30.000
2023-05-10T17:25:20.440Z,29.997
2023-05-10T17:30:17.280Z,29.989
2023-05-10T17:35:20.343Z,29.988
2023-05-10T17:40:20.324Z,29.985
2023-05-10T17:45:20.276Z,29.982
2023-05-10T17:50:17.275Z,29.982
2023-05-10T17:55:17.481Z,29.978
2023-05-10T18:00:20.271Z,29.979
2023-05-10T18:05:17.807Z,29.977
2023-05-10T18:10:20.277Z,29.974
2023-05-10T18:15:20.236Z,29.972
2023-05-10T18:20:20.261Z,29.973
2023-05-10T18:25:17.633Z,29.971
2023-05-10T18:30:20.312Z,29.969
2023-05-10T18:35:20.553Z,29.966
2023-05-10T18:40:17.193Z,29.963
2023-05-10T18:45:17.669Z,29.962
2023-05-10T18:50:20.328Z,29.962
2023-05-10T18:55:20.249Z,29.958
2023-05-10T19:00:20.363Z,29.957
2023-05-10T19:05:17.539Z,29.956
2023-05-10T19:10:17.344Z,29.954
2023-05-10T19:15:22.032Z,29.953
2023-05-10T19:20:17.189Z,29.952
2023-05-10T19:25:20.545Z,29.949
2023-05-10T19:30:20.372Z,29.947
2023-05-10T19:35:20.322Z,29.942
2023-05-10T19:40:20.385Z,29.943
2023-05-10T19:45:17.621Z,29.939
2023-05-10T19:50:20.388Z,29.937
2023-05-10T19:55:17.669Z,29.936
2023-05-10T20:00:17.396Z,29.935
2023-05-10T20:05:20.333Z,29.933
2023-05-10T20:10:20.338Z,29.933
2023-05-10T20:15:20.329Z,29.932
2023-05-10T20:20:20.595Z,29.931
2023-05-10T20:25:20.274Z,29.931
2023-05-10T20:30:20.541Z,29.929
2023-05-10T20:35:20.496Z,29.930
2023-05-10T20:40:20.447Z,29.926
2023-05-10T20:45:20.333Z,29.928
2023-05-10T20:50:20.508Z,29.927
2023-05-10T20:55:17.419Z,29.924
2023-05-10T21:00:20.543Z,29.924
2023-05-10T21:05:20.397Z,29.924
2023-05-10T21:10:20.393Z,29.922
2023-05-10T21:15:18.378Z,29.921
2023-05-10T21:20:18.667Z,29.922
2023-05-10T21:25:18.349Z,29.921
2023-05-10T21:30:18.471Z,29.920
2023-05-10T21:35:18.416Z,29.921
2023-05-10T21:40:15.508Z,29.919
2023-05-10T21:45:18.409Z,29.915
2023-05-10T21:50:18.623Z,29.915
2023-05-10T21:55:15.395Z,29.915
2023-05-10T22:00:18.592Z,29.916
2023-05-10T22:05:18.331Z,29.916
2023-05-10T22:10:18.751Z,29.915
2023-05-10T22:15:18.328Z,29.915
2023-05-10T22:20:15.569Z,29.914
2023-05-10T22:25:15.311Z,29.915
2023-05-10T22:30:18.791Z,29.917
2023-05-10T22:35:18.388Z,29.916
2023-05-10T22:40:18.584Z,29.914
2023-05-10T22:45:18.384Z,29.915
2023-05-10T22:50:18.736Z,29.916
2023-05-10T22:55:18.506Z,29.918
2023-05-10T23:00:18.544Z,29.918
2023-05-10T23:05:18.352Z,29.918
2023-05-10T23:10:18.565Z,29.922
2023-05-10T23:15:18.384Z,29.923
2023-05-10T23:20:18.838Z,29.925
2023-05-10T23:25:18.415Z,29.925
2023-05-10T23:30:18.596Z,29.926
2023-05-10T23:35:18.448Z,29.930
2023-05-10T23:40:18.526Z,29.932
2023-05-10T23:45:18.473Z,29.931
2023-05-10T23:50:18.596Z,29.933
2023-05-10T23:55:15.466Z,29.933
